sensor_id;sensor_type;location;lat;lon;timestamp;pressure;altitude;pressure_sealevel;temperature;humidity
44659;BME280;30378;50.186;8.644;2022-08-19T00:01:50;99836.25;;;19.47;100.00
44659;BME280;30378;50.186;8.644;2022-08-19T00:04:19;99835.59;;;19.53;100.00
44659;BME280;30378;50.186;8.644;2022-08-19T00:06:47;99832.91;;;19.57;100.00
44659;BME280;30378;50.186;8.644;2022-08-19T00:09:16;99842.84;;;19.58;100.00
44659;BME280;30378;50.186;8.644;2022-08-19T00:11:45;99843.78;;;19.66;100.00
44659;BME280;30378;50.186;8.644;2022-08-19T00:14:15;99838.22;;;19.66;100.00
44659;BME280;30378;50.186;8.644;2022-08-19T00:16:45;99843.00;;;19.65;100.00
44659;BME280;30378;50.186;8.644;2022-08-19T00:19:14;99829.09;;;19.69;100.00
44659;BME280;30378;50.186;8.644;2022-08-19T00:21:42;99833.50;;;19.70;100.00
44659;BME280;30378;50.186;8.644;2022-08-19T00:24:12;99831.88;;;19.69;100.00
44659;BME280;30378;50.186;8.644;2022-08-19T00:26:40;99824.72;;;19.68;100.00
44659;BME280;30378;50.186;8.644;2022-08-19T00:29:10;99821.94;;;19.68;100.00
44659;BME280;30378;50.186;8.644;2022-08-19T00:31:39;99817.53;;;19.67;100.00
44659;BME280;30378;50.186;8.644;2022-08-19T00:34:07;99808.44;;;19.70;100.00
44659;BME280;30378;50.186;8.644;2022-08-19T00:36:34;99812.00;;;19.70;100.00
44659;BME280;30378;50.186;8.644;2022-08-19T00:39:03;99804.94;;;19.73;100.00
44659;BME280;30378;50.186;8.644;2022-08-19T00:41:30;99803.75;;;19.74;100.00
44659;BME280;30378;50.186;8.644;2022-08-19T00:43:58;99798.97;;;19.74;100.00
44659;BME280;30378;50.186;8.644;2022-08-19T00:46:27;99798.97;;;19.74;100.00
44659;BME280;30378;50.186;8.644;2022-08-19T00:48:55;99803.03;;;19.77;100.00
44659;BME280;30378;50.186;8.644;2022-08-19T00:51:27;99806.69;;;19.81;100.00
44659;BME280;30378;50.186;8.644;2022-08-19T00:53:57;99805.47;;;19.82;100.00
44659;BME280;30378;50.186;8.644;2022-08-19T00:56:25;99801.97;;;19.85;100.00
44659;BME280;30378;50.186;8.644;2022-08-19T00:58:55;99801.16;;;19.85;100.00
44659;BME280;30378;50.186;8.644;2022-08-19T01:01:23;99794.34;;;19.82;100.00
44659;BME280;30378;50.186;8.644;2022-08-19T01:03:50;99797.19;;;19.86;100.00
44659;BME280;30378;50.186;8.644;2022-08-19T01:06:18;99786.03;;;19.86;100.00
44659;BME280;30378;50.186;8.644;2022-08-19T01:08:45;99786.03;;;19.86;100.00
44659;BME280;30378;50.186;8.644;2022-08-19T01:11:13;99784.81;;;19.83;100.00
44659;BME280;30378;50.186;8.644;2022-08-19T01:13:40;99776.44;;;19.83;100.00
44659;BME280;30378;50.186;8.644;2022-08-19T01:16:09;99774.38;;;19.80;100.00
44659;BME280;30378;50.186;8.644;2022-08-19T01:18:40;99776.81;;;19.81;100.00
44659;BME280;30378;50.186;8.644;2022-08-19T01:21:32;99783.19;;;19.82;100.00
44659;BME280;30378;50.186;8.644;2022-08-19T01:24:01;99779.22;;;19.83;100.00
44659;BME280;30378;50.186;8.644;2022-08-19T01:26:28;99777.16;;;19.80;100.00
44659;BME280;30378;50.186;8.644;2022-08-19T01:28:57;99781.94;;;19.79;100.00
44659;BME280;30378;50.186;8.644;2022-08-19T01:31:27;99782.81;;;19.84;100.00
44659;BME280;30378;50.186;8.644;2022-08-19T01:33:57;99781.59;;;19.81;100.00
44659;BME280;30378;50.186;8.644;2022-08-19T01:36:43;99768.50;;;19.85;100.00
44659;BME280;30378;50.186;8.644;2022-08-19T01:39:19;99776.00;;;19.81;100.00
44659;BME280;30378;50.186;8.644;2022-08-19T01:41:47;99772.81;;;19.83;100.00
44659;BME280;30378;50.186;8.644;2022-08-19T01:44:15;99759.34;;;19.85;100.00
44659;BME280;30378;50.186;8.644;2022-08-19T01:46:46;99767.66;;;19.81;100.00
44659;BME280;30378;50.186;8.644;2022-08-19T01:49:16;99764.84;;;19.81;100.00
44659;BME280;30378;50.186;8.644;2022-08-19T01:51:43;99786.28;;;19.77;100.00
44659;BME280;30378;50.186;8.644;2022-08-19T01:54:14;99785.03;;;19.74;100.00
44659;BME280;30378;50.186;8.644;2022-08-19T01:56:42;99788.22;;;19.73;100.00
44659;BME280;30378;50.186;8.644;2022-08-19T01:59:16;99774.97;;;19.70;100.00
44659;BME280;30378;50.186;8.644;2022-08-19T02:01:44;99778.50;;;19.67;100.00
44659;BME280;30378;50.186;8.644;2022-08-19T02:04:12;99778.38;;;19.59;100.00
44659;BME280;30378;50.186;8.644;2022-08-19T02:06:39;99789.91;;;19.58;100.00
44659;BME280;30378;50.186;8.644;2022-08-19T02:09:07;99786.31;;;19.57;100.00
44659;BME280;30378;50.186;8.644;2022-08-19T02:11:36;99791.88;;;19.57;100.00
44659;BME280;30378;50.186;8.644;2022-08-19T02:14:07;99778.31;;;19.56;100.00
44659;BME280;30378;50.186;8.644;2022-08-19T02:16:35;99786.53;;;19.49;100.00
44659;BME280;30378;50.186;8.644;2022-08-19T02:19:03;99787.41;;;19.53;100.00
44659;BME280;30378;50.186;8.644;2022-08-19T02:21:30;99783.03;;;19.52;100.00
44659;BME280;30378;50.186;8.644;2022-08-19T02:23:58;99782.22;;;19.51;100.00
44659;BME280;30378;50.186;8.644;2022-08-19T02:26:26;99787.81;;;19.51;100.00
44659;BME280;30378;50.186;8.644;2022-08-19T02:28:56;99806.25;;;19.59;100.00
44659;BME280;30378;50.186;8.644;2022-08-19T02:31:25;99802.59;;;19.55;100.00
44659;BME280;30378;50.186;8.644;2022-08-19T02:33:55;99806.97;;;19.56;100.00
44659;BME280;30378;50.186;8.644;2022-08-19T02:36:24;99810.88;;;19.52;100.00
44659;BME280;30378;50.186;8.644;2022-08-19T02:38:52;99807.16;;;19.44;100.00
44659;BME280;30378;50.186;8.644;2022-08-19T02:41:24;99804.97;;;19.34;100.00
44659;BME280;30378;50.186;8.644;2022-08-19T02:43:54;99810.41;;;19.27;100.00
44659;BME280;30378;50.186;8.644;2022-08-19T02:46:24;99811.16;;;19.24;100.00
44659;BME280;30378;50.186;8.644;2022-08-19T02:48:56;99817.53;;;19.24;100.00
44659;BME280;30378;50.186;8.644;2022-08-19T02:51:27;99811.88;;;19.20;100.00
44659;BME280;30378;50.186;8.644;2022-08-19T02:53:54;99808.88;;;19.10;100.00
44659;BME280;30378;50.186;8.644;2022-08-19T02:56:23;99813.06;;;19.00;100.00
44659;BME280;30378;50.186;8.644;2022-08-19T02:58:51;99817.38;;;18.97;100.00
44659;BME280;30378;50.186;8.644;2022-08-19T03:01:31;99823.59;;;18.91;100.00
44659;BME280;30378;50.186;8.644;2022-08-19T03:04:03;99823.06;;;18.85;100.00
44659;BME280;30378;50.186;8.644;2022-08-19T03:06:32;99819.06;;;18.82;100.00
44659;BME280;30378;50.186;8.644;2022-08-19T03:08:59;99819.75;;;18.79;100.00
44659;BME280;30378;50.186;8.644;2022-08-19T03:11:31;99812.50;;;18.75;100.00
44659;BME280;30378;50.186;8.644;2022-08-19T03:13:59;99813.84;;;18.81;100.00
44659;BME280;30378;50.186;8.644;2022-08-19T03:16:29;99813.72;;;18.77;100.00
44659;BME280;30378;50.186;8.644;2022-08-19T03:18:57;99809.09;;;18.66;100.00
44659;BME280;30378;50.186;8.644;2022-08-19T03:21:32;99814.03;;;18.72;100.00
44659;BME280;30378;50.186;8.644;2022-08-19T03:24:02;99814.38;;;18.71;100.00
44659;BME280;30378;50.186;8.644;2022-08-19T03:26:29;99812.41;;;18.71;100.00
44659;BME280;30378;50.186;8.644;2022-08-19T03:28:57;99816.81;;;18.72;100.00
44659;BME280;30378;50.186;8.644;2022-08-19T03:31:28;99820.47;;;18.76;100.00
44659;BME280;30378;50.186;8.644;2022-08-19T03:33:55;99824.84;;;18.77;100.00
44659;BME280;30378;50.186;8.644;2022-08-19T03:36:24;99830.91;;;18.79;100.00
44659;BME280;30378;50.186;8.644;2022-08-19T03:38:56;99832.97;;;18.82;100.00
44659;BME280;30378;50.186;8.644;2022-08-19T03:41:27;99837.00;;;18.85;100.00
44659;BME280;30378;50.186;8.644;2022-08-19T03:43:55;99828.72;;;18.89;100.00
44659;BME280;30378;50.186;8.644;2022-08-19T03:46:26;99836.63;;;18.87;100.00
44659;BME280;30378;50.186;8.644;2022-08-19T03:48:56;99835.97;;;18.93;100.00
44659;BME280;30378;50.186;8.644;2022-08-19T03:51:27;99833.28;;;18.97;100.00
44659;BME280;30378;50.186;8.644;2022-08-19T03:53:55;99838.31;;;18.91;100.00
44659;BME280;30378;50.186;8.644;2022-08-19T03:56:23;99837.00;;;18.85;100.00
44659;BME280;30378;50.186;8.644;2022-08-19T03:58:53;99834.50;;;18.80;100.00
44659;BME280;30378;50.186;8.644;2022-08-19T04:01:23;99846.88;;;18.82;100.00
44659;BME280;30378;50.186;8.644;2022-08-19T04:03:50;99837.75;;;18.82;100.00
44659;BME280;30378;50.186;8.644;2022-08-19T04:06:21;99832.06;;;18.78;100.00
44659;BME280;30378;50.186;8.644;2022-08-19T04:08:50;99841.13;;;18.75;100.00
44659;BME280;30378;50.186;8.644;2022-08-19T04:11:22;99841.78;;;18.69;100.00
44659;BME280;30378;50.186;8.644;2022-08-19T04:13:51;99846.91;;;18.67;100.00
44659;BME280;30378;50.186;8.644;2022-08-19T04:16:19;99841.97;;;18.60;100.00
44659;BME280;30378;50.186;8.644;2022-08-19T04:18:48;99843.22;;;18.62;100.00
44659;BME280;30378;50.186;8.644;2022-08-19T04:21:18;99847.81;;;18.55;100.00
44659;BME280;30378;50.186;8.644;2022-08-19T04:23:46;99843.72;;;18.49;100.00
44659;BME280;30378;50.186;8.644;2022-08-19T04:26:19;99850.44;;;18.48;100.00
44659;BME280;30378;50.186;8.644;2022-08-19T04:28:47;99837.97;;;18.41;100.00
44659;BME280;30378;50.186;8.644;2022-08-19T04:31:17;99836.81;;;18.42;100.00
44659;BME280;30378;50.186;8.644;2022-08-19T04:33:44;99835.19;;;18.41;100.00
44659;BME280;30378;50.186;8.644;2022-08-19T04:36:20;99835.28;;;18.45;100.00
44659;BME280;30378;50.186;8.644;2022-08-19T04:38:49;99843.63;;;18.45;100.00
44659;BME280;30378;50.186;8.644;2022-08-19T04:41:16;99840.84;;;18.45;100.00
44659;BME280;30378;50.186;8.644;2022-08-19T04:44:03;99842.97;;;18.52;100.00
44659;BME280;30378;50.186;8.644;2022-08-19T04:46:30;99840.59;;;18.70;100.00
44659;BME280;30378;50.186;8.644;2022-08-19T04:49:00;99854.94;;;18.72;100.00
44659;BME280;30378;50.186;8.644;2022-08-19T04:51:28;99848.13;;;18.69;100.00
44659;BME280;30378;50.186;8.644;2022-08-19T04:53:58;99848.31;;;18.76;100.00
44659;BME280;30378;50.186;8.644;2022-08-19T04:56:26;99850.56;;;18.87;100.00
44659;BME280;30378;50.186;8.644;2022-08-19T04:58:55;99851.97;;;18.96;100.00
44659;BME280;30378;50.186;8.644;2022-08-19T05:01:26;99856.59;;;19.08;100.00
44659;BME280;30378;50.186;8.644;2022-08-19T05:03:56;99863.56;;;19.18;100.00
44659;BME280;30378;50.186;8.644;2022-08-19T05:06:24;99861.06;;;19.32;100.00
44659;BME280;30378;50.186;8.644;2022-08-19T05:08:52;99860.09;;;19.44;100.00
44659;BME280;30378;50.186;8.644;2022-08-19T05:11:28;99857.22;;;19.60;100.00
44659;BME280;30378;50.186;8.644;2022-08-19T05:13:57;99855.91;;;19.73;100.00
44659;BME280;30378;50.186;8.644;2022-08-19T05:16:26;99851.53;;;19.95;100.00
44659;BME280;30378;50.186;8.644;2022-08-19T05:18:55;99842.91;;;20.04;100.00
44659;BME280;30378;50.186;8.644;2022-08-19T05:21:42;99837.69;;;20.26;100.00
44659;BME280;30378;50.186;8.644;2022-08-19T05:24:29;99846.09;;;20.52;100.00
44659;BME280;30378;50.186;8.644;2022-08-19T05:26:56;99844.97;;;20.84;100.00
44659;BME280;30378;50.186;8.644;2022-08-19T05:29:26;99852.84;;;21.38;100.00
44659;BME280;30378;50.186;8.644;2022-08-19T05:31:54;99845.28;;;22.14;100.00
44659;BME280;30378;50.186;8.644;2022-08-19T05:34:23;99850.72;;;22.44;100.00
44659;BME280;30378;50.186;8.644;2022-08-19T05:36:56;99850.81;;;22.51;100.00
44659;BME280;30378;50.186;8.644;2022-08-19T05:39:27;99857.22;;;22.55;100.00
44659;BME280;30378;50.186;8.644;2022-08-19T05:41:59;99853.22;;;22.56;100.00
44659;BME280;30378;50.186;8.644;2022-08-19T05:44:29;99854.75;;;23.09;100.00
44659;BME280;30378;50.186;8.644;2022-08-19T05:47:02;99863.69;;;23.36;100.00
44659;BME280;30378;50.186;8.644;2022-08-19T05:49:32;99873.00;;;23.62;100.00
44659;BME280;30378;50.186;8.644;2022-08-19T05:52:09;99871.34;;;23.58;100.00
44659;BME280;30378;50.186;8.644;2022-08-19T05:54:39;99867.38;;;23.62;100.00
44659;BME280;30378;50.186;8.644;2022-08-19T05:57:10;99876.28;;;23.82;100.00
44659;BME280;30378;50.186;8.644;2022-08-19T05:59:37;99872.28;;;24.01;100.00
44659;BME280;30378;50.186;8.644;2022-08-19T06:02:06;99873.50;;;24.14;100.00
44659;BME280;30378;50.186;8.644;2022-08-19T06:04:34;99877.94;;;24.30;100.00
44659;BME280;30378;50.186;8.644;2022-08-19T06:07:01;99885.13;;;24.06;100.00
44659;BME280;30378;50.186;8.644;2022-08-19T06:09:29;99886.69;;;23.85;100.00
44659;BME280;30378;50.186;8.644;2022-08-19T06:11:58;99896.34;;;24.92;100.00
44659;BME280;30378;50.186;8.644;2022-08-19T06:14:29;99901.31;;;25.76;95.56
44659;BME280;30378;50.186;8.644;2022-08-19T06:16:58;99890.59;;;26.16;91.36
44659;BME280;30378;50.186;8.644;2022-08-19T06:19:30;99902.97;;;25.59;90.88
44659;BME280;30378;50.186;8.644;2022-08-19T06:21:59;99906.38;;;25.22;93.80
44659;BME280;30378;50.186;8.644;2022-08-19T06:24:28;99909.63;;;24.38;100.00
44659;BME280;30378;50.186;8.644;2022-08-19T06:26:57;99920.44;;;24.18;100.00
44659;BME280;30378;50.186;8.644;2022-08-19T06:29:25;99916.00;;;24.06;100.00
44659;BME280;30378;50.186;8.644;2022-08-19T06:31:55;99911.94;;;23.78;100.00
44659;BME280;30378;50.186;8.644;2022-08-19T06:34:24;99924.00;;;23.97;100.00
44659;BME280;30378;50.186;8.644;2022-08-19T06:36:52;99923.66;;;24.23;100.00
44659;BME280;30378;50.186;8.644;2022-08-19T06:39:25;99926.88;;;25.01;100.00
44659;BME280;30378;50.186;8.644;2022-08-19T06:41:58;99929.13;;;25.63;100.00
44659;BME280;30378;50.186;8.644;2022-08-19T06:44:30;99933.81;;;25.84;94.16
44659;BME280;30378;50.186;8.644;2022-08-19T06:47:03;99942.41;;;26.29;91.37
44659;BME280;30378;50.186;8.644;2022-08-19T06:49:31;99955.50;;;25.98;89.88
44659;BME280;30378;50.186;8.644;2022-08-19T06:51:59;99946.56;;;26.10;86.05
44659;BME280;30378;50.186;8.644;2022-08-19T06:54:27;99944.75;;;26.42;87.04
44659;BME280;30378;50.186;8.644;2022-08-19T06:56:59;99941.41;;;26.61;87.81
44659;BME280;30378;50.186;8.644;2022-08-19T06:59:30;99943.19;;;26.34;84.46
44659;BME280;30378;50.186;8.644;2022-08-19T07:02:05;99954.53;;;26.23;90.73
44659;BME280;30378;50.186;8.644;2022-08-19T07:04:35;99958.81;;;26.42;84.25
44659;BME280;30378;50.186;8.644;2022-08-19T07:07:08;99960.41;;;27.75;77.05
44659;BME280;30378;50.186;8.644;2022-08-19T07:09:38;99958.84;;;29.26;66.15
44659;BME280;30378;50.186;8.644;2022-08-19T07:12:08;99959.91;;;30.81;55.05
44659;BME280;30378;50.186;8.644;2022-08-19T07:14:37;99965.50;;;31.31;52.06
44659;BME280;30378;50.186;8.644;2022-08-19T07:17:07;99964.03;;;31.55;51.70
44659;BME280;30378;50.186;8.644;2022-08-19T07:19:35;99959.03;;;32.66;49.69
44659;BME280;30378;50.186;8.644;2022-08-19T07:22:05;99957.88;;;32.76;48.13
44659;BME280;30378;50.186;8.644;2022-08-19T07:24:35;99968.16;;;32.35;46.43
44659;BME280;30378;50.186;8.644;2022-08-19T07:27:04;99970.34;;;31.89;47.76
44659;BME280;30378;50.186;8.644;2022-08-19T07:29:33;99967.34;;;32.09;48.85
44659;BME280;30378;50.186;8.644;2022-08-19T07:32:01;99969.50;;;32.69;45.43
44659;BME280;30378;50.186;8.644;2022-08-19T07:34:31;99970.47;;;33.35;44.14
44659;BME280;30378;50.186;8.644;2022-08-19T07:37:01;99967.09;;;32.03;47.41
44659;BME280;30378;50.186;8.644;2022-08-19T07:39:31;99962.50;;;31.80;48.25
44659;BME280;30378;50.186;8.644;2022-08-19T07:42:00;99953.19;;;31.92;46.54
44659;BME280;30378;50.186;8.644;2022-08-19T07:44:28;99962.47;;;32.35;46.75
44659;BME280;30378;50.186;8.644;2022-08-19T07:46:56;99960.16;;;32.81;45.09
44659;BME280;30378;50.186;8.644;2022-08-19T07:49:24;99968.09;;;33.34;45.35
44659;BME280;30378;50.186;8.644;2022-08-19T07:51:58;99967.50;;;32.91;45.72
44659;BME280;30378;50.186;8.644;2022-08-19T07:54:30;99965.88;;;33.16;45.49
44659;BME280;30378;50.186;8.644;2022-08-19T07:56:58;99959.34;;;33.28;44.52
44659;BME280;30378;50.186;8.644;2022-08-19T07:59:25;99967.75;;;33.10;44.72
44659;BME280;30378;50.186;8.644;2022-08-19T08:01:53;99965.22;;;33.12;44.70
44659;BME280;30378;50.186;8.644;2022-08-19T08:04:20;99967.63;;;33.00;43.83
44659;BME280;30378;50.186;8.644;2022-08-19T08:07:07;99966.72;;;32.91;46.42
44659;BME280;30378;50.186;8.644;2022-08-19T08:09:53;99977.28;;;33.38;45.38
44659;BME280;30378;50.186;8.644;2022-08-19T08:12:24;99973.13;;;33.30;44.04
44659;BME280;30378;50.186;8.644;2022-08-19T08:15:03;99967.97;;;33.59;44.71
44659;BME280;30378;50.186;8.644;2022-08-19T08:17:32;99978.16;;;33.92;43.35
44659;BME280;30378;50.186;8.644;2022-08-19T08:20:00;99972.03;;;34.74;41.22
44659;BME280;30378;50.186;8.644;2022-08-19T08:22:27;99975.06;;;34.80;40.54
44659;BME280;30378;50.186;8.644;2022-08-19T08:25:17;99974.53;;;32.13;44.38
44659;BME280;30378;50.186;8.644;2022-08-19T08:27:46;99976.28;;;31.94;46.49
44659;BME280;30378;50.186;8.644;2022-08-19T08:30:17;99971.66;;;32.77;45.94
44659;BME280;30378;50.186;8.644;2022-08-19T08:32:44;99986.34;;;31.40;46.15
44659;BME280;30378;50.186;8.644;2022-08-19T08:35:15;99983.97;;;31.22;47.01
44659;BME280;30378;50.186;8.644;2022-08-19T08:37:45;99991.97;;;30.09;51.14
44659;BME280;30378;50.186;8.644;2022-08-19T08:40:39;99991.50;;;30.31;53.07
44659;BME280;30378;50.186;8.644;2022-08-19T08:46:15;99983.66;;;29.82;52.22
44659;BME280;30378;50.186;8.644;2022-08-19T08:48:54;99982.13;;;29.14;55.50
44659;BME280;30378;50.186;8.644;2022-08-19T08:51:56;99977.97;;;31.20;50.77
44659;BME280;30378;50.186;8.644;2022-08-19T08:54:24;99979.38;;;31.41;48.88
44659;BME280;30378;50.186;8.644;2022-08-19T08:56:54;99986.44;;;31.37;48.30
44659;BME280;30378;50.186;8.644;2022-08-19T08:59:30;99985.59;;;30.74;50.31
44659;BME280;30378;50.186;8.644;2022-08-19T09:02:01;99982.69;;;29.89;51.14
44659;BME280;30378;50.186;8.644;2022-08-19T09:04:29;99982.16;;;28.86;54.82
44659;BME280;30378;50.186;8.644;2022-08-19T09:10:14;99974.44;;;33.60;44.41
44659;BME280;30378;50.186;8.644;2022-08-19T09:15:18;99971.16;;;34.46;42.23
44659;BME280;30378;50.186;8.644;2022-08-19T09:17:50;99967.63;;;34.33;42.18
44659;BME280;30378;50.186;8.644;2022-08-19T09:20:20;99962.88;;;32.85;43.00
44659;BME280;30378;50.186;8.644;2022-08-19T09:22:48;99963.19;;;33.34;44.47
44659;BME280;30378;50.186;8.644;2022-08-19T09:25:18;99961.72;;;32.82;45.89
44659;BME280;30378;50.186;8.644;2022-08-19T09:27:50;99963.00;;;31.91;46.17
44659;BME280;30378;50.186;8.644;2022-08-19T09:30:22;99952.97;;;31.87;47.10
44659;BME280;30378;50.186;8.644;2022-08-19T09:32:51;99958.03;;;32.72;45.91
44659;BME280;30378;50.186;8.644;2022-08-19T09:35:23;99955.28;;;32.05;45.41
44659;BME280;30378;50.186;8.644;2022-08-19T09:37:52;99960.78;;;30.78;48.31
44659;BME280;30378;50.186;8.644;2022-08-19T09:40:20;99954.50;;;31.62;47.37
44659;BME280;30378;50.186;8.644;2022-08-19T09:42:47;99961.78;;;32.05;45.67
44659;BME280;30378;50.186;8.644;2022-08-19T09:45:18;99963.16;;;33.69;41.98
44659;BME280;30378;50.186;8.644;2022-08-19T09:47:49;99952.00;;;33.05;44.01
44659;BME280;30378;50.186;8.644;2022-08-19T09:50:18;99948.22;;;33.43;45.60
44659;BME280;30378;50.186;8.644;2022-08-19T09:52:45;99957.47;;;32.65;43.22
44659;BME280;30378;50.186;8.644;2022-08-19T09:55:13;99951.88;;;32.10;44.78
44659;BME280;30378;50.186;8.644;2022-08-19T09:57:40;99948.50;;;31.60;46.69
44659;BME280;30378;50.186;8.644;2022-08-19T10:00:08;99944.91;;;32.75;45.09
44659;BME280;30378;50.186;8.644;2022-08-19T10:02:36;99947.56;;;32.05;44.96
44659;BME280;30378;50.186;8.644;2022-08-19T10:05:04;99941.13;;;32.78;47.01
44659;BME280;30378;50.186;8.644;2022-08-19T10:07:50;99946.38;;;33.71;44.23
44659;BME280;30378;50.186;8.644;2022-08-19T10:10:17;99944.91;;;34.20;41.56
44659;BME280;30378;50.186;8.644;2022-08-19T10:12:44;99942.72;;;34.83;40.43
44659;BME280;30378;50.186;8.644;2022-08-19T10:15:14;99945.50;;;34.65;40.23
44659;BME280;30378;50.186;8.644;2022-08-19T10:17:41;99947.22;;;34.12;41.04
44659;BME280;30378;50.186;8.644;2022-08-19T10:20:09;99957.47;;;33.69;42.82
44659;BME280;30378;50.186;8.644;2022-08-19T10:22:36;99945.81;;;33.86;42.31
44659;BME280;30378;50.186;8.644;2022-08-19T10:25:05;99949.00;;;33.22;42.67
44659;BME280;30378;50.186;8.644;2022-08-19T10:27:32;99946.06;;;32.26;43.33
44659;BME280;30378;50.186;8.644;2022-08-19T10:30:00;99944.38;;;31.61;45.64
44659;BME280;30378;50.186;8.644;2022-08-19T10:32:28;99936.31;;;32.14;45.22
44659;BME280;30378;50.186;8.644;2022-08-19T10:34:56;99942.88;;;33.98;43.09
44659;BME280;30378;50.186;8.644;2022-08-19T10:37:23;99940.59;;;33.18;42.07
44659;BME280;30378;50.186;8.644;2022-08-19T10:39:50;99940.81;;;33.68;42.64
44659;BME280;30378;50.186;8.644;2022-08-19T10:42:18;99929.84;;;33.88;41.54
44659;BME280;30378;50.186;8.644;2022-08-19T10:44:46;99934.97;;;33.27;43.17
44659;BME280;30378;50.186;8.644;2022-08-19T10:47:17;99934.56;;;31.91;44.52
44659;BME280;30378;50.186;8.644;2022-08-19T10:49:44;99933.47;;;30.84;46.56
44659;BME280;30378;50.186;8.644;2022-08-19T10:52:30;99935.84;;;30.20;47.97
44659;BME280;30378;50.186;8.644;2022-08-19T10:55:05;99935.34;;;30.58;48.08
44659;BME280;30378;50.186;8.644;2022-08-19T10:57:51;99935.81;;;32.54;43.95
44659;BME280;30378;50.186;8.644;2022-08-19T11:00:27;99926.06;;;32.55;43.27
44659;BME280;30378;50.186;8.644;2022-08-19T11:02:55;99915.88;;;33.37;41.45
44659;BME280;30378;50.186;8.644;2022-08-19T11:05:23;99919.91;;;33.93;39.90
44659;BME280;30378;50.186;8.644;2022-08-19T11:07:50;99912.47;;;34.36;40.79
44659;BME280;30378;50.186;8.644;2022-08-19T11:10:19;99908.91;;;33.82;39.01
44659;BME280;30378;50.186;8.644;2022-08-19T11:12:48;99909.28;;;33.40;39.46
44659;BME280;30378;50.186;8.644;2022-08-19T11:15:15;99902.28;;;31.98;42.93
44659;BME280;30378;50.186;8.644;2022-08-19T11:17:43;99901.09;;;31.57;43.44
44659;BME280;30378;50.186;8.644;2022-08-19T11:20:12;99898.03;;;30.93;44.89
44659;BME280;30378;50.186;8.644;2022-08-19T11:22:40;99904.66;;;30.86;44.82
44659;BME280;30378;50.186;8.644;2022-08-19T11:25:09;99898.22;;;32.12;44.40
44659;BME280;30378;50.186;8.644;2022-08-19T11:27:40;99898.69;;;33.06;42.83
44659;BME280;30378;50.186;8.644;2022-08-19T11:30:12;99888.13;;;33.50;39.98
44659;BME280;30378;50.186;8.644;2022-08-19T11:32:41;99879.63;;;34.22;38.79
44659;BME280;30378;50.186;8.644;2022-08-19T11:35:11;99861.72;;;33.50;40.15
44659;BME280;30378;50.186;8.644;2022-08-19T11:37:38;99856.06;;;32.93;42.69
44659;BME280;30378;50.186;8.644;2022-08-19T11:40:06;99853.75;;;31.92;42.81
44659;BME280;30378;50.186;8.644;2022-08-19T11:42:34;99866.84;;;30.93;43.99
44659;BME280;30378;50.186;8.644;2022-08-19T11:45:20;99863.63;;;32.26;40.97
44659;BME280;30378;50.186;8.644;2022-08-19T11:47:47;99862.69;;;32.90;40.91
44659;BME280;30378;50.186;8.644;2022-08-19T11:50:15;99865.66;;;33.74;39.76
44659;BME280;30378;50.186;8.644;2022-08-19T11:52:43;99870.78;;;34.29;37.97
44659;BME280;30378;50.186;8.644;2022-08-19T11:55:13;99860.50;;;34.23;36.63
44659;BME280;30378;50.186;8.644;2022-08-19T11:57:41;99866.88;;;33.64;36.79
44659;BME280;30378;50.186;8.644;2022-08-19T12:00:11;99860.97;;;32.57;39.23
44659;BME280;30378;50.186;8.644;2022-08-19T12:02:41;99858.09;;;32.10;39.70
44659;BME280;30378;50.186;8.644;2022-08-19T12:05:09;99850.19;;;31.08;41.15
44659;BME280;30378;50.186;8.644;2022-08-19T12:07:38;99860.97;;;30.38;42.33
44659;BME280;30378;50.186;8.644;2022-08-19T12:10:06;99868.47;;;30.61;43.02
44659;BME280;30378;50.186;8.644;2022-08-19T12:12:34;99871.00;;;32.49;40.47
44659;BME280;30378;50.186;8.644;2022-08-19T12:15:02;99860.56;;;32.81;38.40
44659;BME280;30378;50.186;8.644;2022-08-19T12:17:29;99859.75;;;33.69;37.82
44659;BME280;30378;50.186;8.644;2022-08-19T12:19:57;99855.09;;;34.34;39.35
44659;BME280;30378;50.186;8.644;2022-08-19T12:22:25;99849.63;;;33.99;37.63
44659;BME280;30378;50.186;8.644;2022-08-19T12:24:52;99858.34;;;32.50;37.61
44659;BME280;30378;50.186;8.644;2022-08-19T12:27:20;99849.44;;;31.88;38.44
44659;BME280;30378;50.186;8.644;2022-08-19T12:29:48;99853.88;;;32.75;38.00
44659;BME280;30378;50.186;8.644;2022-08-19T12:32:15;99850.19;;;33.31;38.75
44659;BME280;30378;50.186;8.644;2022-08-19T12:34:42;99844.50;;;33.31;37.65
44659;BME280;30378;50.186;8.644;2022-08-19T12:37:10;99845.44;;;33.06;39.51
44659;BME280;30378;50.186;8.644;2022-08-19T12:39:40;99842.84;;;31.78;39.46
44659;BME280;30378;50.186;8.644;2022-08-19T12:42:10;99845.88;;;30.57;40.62
44659;BME280;30378;50.186;8.644;2022-08-19T12:44:39;99840.03;;;29.99;41.10
44659;BME280;30378;50.186;8.644;2022-08-19T12:47:07;99841.88;;;29.53;43.85
44659;BME280;30378;50.186;8.644;2022-08-19T12:49:35;99836.75;;;30.00;44.16
44659;BME280;30378;50.186;8.644;2022-08-19T12:52:04;99832.84;;;29.94;42.00
44659;BME280;30378;50.186;8.644;2022-08-19T12:54:32;99832.13;;;29.54;43.40
44659;BME280;30378;50.186;8.644;2022-08-19T12:56:59;99830.72;;;30.15;42.67
44659;BME280;30378;50.186;8.644;2022-08-19T12:59:27;99819.47;;;31.32;39.81
44659;BME280;30378;50.186;8.644;2022-08-19T13:01:54;99813.94;;;32.31;39.23
44659;BME280;30378;50.186;8.644;2022-08-19T13:04:21;99821.63;;;33.13;36.89
44659;BME280;30378;50.186;8.644;2022-08-19T13:06:49;99825.84;;;34.02;36.56
44659;BME280;30378;50.186;8.644;2022-08-19T13:09:17;99812.47;;;34.21;35.19
44659;BME280;30378;50.186;8.644;2022-08-19T13:11:44;99830.41;;;33.81;35.12
44659;BME280;30378;50.186;8.644;2022-08-19T13:14:12;99833.28;;;31.59;37.31
44659;BME280;30378;50.186;8.644;2022-08-19T13:16:39;99836.50;;;30.90;38.59
44659;BME280;30378;50.186;8.644;2022-08-19T13:19:07;99834.28;;;30.52;39.80